sensor_id;sensor_type;location;lat;lon;timestamp;P1;durP1;ratioP1;P2;durP2;ratioP2
5345;SDS011;2695;49.444;11.054;2022-12-07T00:01:26;4.97;;;4.03;;
5345;SDS011;2695;49.444;11.054;2022-12-07T00:03:56;4.57;;;4.10;;
5345;SDS011;2695;49.444;11.054;2022-12-07T00:06:31;11.03;;;5.90;;
5345;SDS011;2695;49.444;11.054;2022-12-07T00:09:00;9.67;;;4.90;;
5345;SDS011;2695;49.444;11.054;2022-12-07T00:11:28;6.07;;;4.97;;
5345;SDS011;2695;49.444;11.054;2022-12-07T00:13:57;7.40;;;5.10;;
5345;SDS011;2695;49.444;11.054;2022-12-07T00:16:28;8.60;;;5.27;;
5345;SDS011;2695;49.444;11.054;2022-12-07T00:18:58;6.33;;;5.10;;
5345;SDS011;2695;49.444;11.054;2022-12-07T00:21:27;6.57;;;4.23;;
5345;SDS011;2695;49.444;11.054;2022-12-07T00:23:56;6.73;;;5.43;;
5345;SDS011;2695;49.444;11.054;2022-12-07T00:26:26;5.87;;;4.80;;
5345;SDS011;2695;49.444;11.054;2022-12-07T00:28:56;7.40;;;5.27;;
5345;SDS011;2695;49.444;11.054;2022-12-07T00:31:26;6.10;;;4.97;;
5345;SDS011;2695;49.444;11.054;2022-12-07T00:33:59;6.10;;;5.10;;
5345;SDS011;2695;49.444;11.054;2022-12-07T00:36:28;7.10;;;5.00;;
5345;SDS011;2695;49.444;11.054;2022-12-07T00:38:57;4.97;;;4.10;;
5345;SDS011;2695;49.444;11.054;2022-12-07T00:41:27;5.50;;;4.87;;
5345;SDS011;2695;49.444;11.054;2022-12-07T00:43:56;6.47;;;4.93;;
5345;SDS011;2695;49.444;11.054;2022-12-07T00:46:29;8.07;;;5.60;;
5345;SDS011;2695;49.444;11.054;2022-12-07T00:48:57;6.70;;;5.30;;
5345;SDS011;2695;49.444;11.054;2022-12-07T00:51:29;5.47;;;4.97;;
5345;SDS011;2695;49.444;11.054;2022-12-07T00:54:00;7.23;;;5.17;;
5345;SDS011;2695;49.444;11.054;2022-12-07T00:56:28;8.23;;;6.23;;
5345;SDS011;2695;49.444;11.054;2022-12-07T00:58:57;7.30;;;5.47;;
5345;SDS011;2695;49.444;11.054;2022-12-07T01:01:29;6.00;;;5.07;;
5345;SDS011;2695;49.444;11.054;2022-12-07T01:03:59;7.20;;;5.50;;
5345;SDS011;2695;49.444;11.054;2022-12-07T01:06:27;5.27;;;4.77;;
5345;SDS011;2695;49.444;11.054;2022-12-07T01:08:56;7.47;;;5.43;;
5345;SDS011;2695;49.444;11.054;2022-12-07T01:11:25;5.30;;;4.77;;
5345;SDS011;2695;49.444;11.054;2022-12-07T01:13:55;9.43;;;5.60;;
5345;SDS011;2695;49.444;11.054;2022-12-07T01:16:25;5.90;;;5.30;;
5345;SDS011;2695;49.444;11.054;2022-12-07T01:18:56;5.97;;;5.17;;
5345;SDS011;2695;49.444;11.054;2022-12-07T01:21:25;7.80;;;5.80;;
5345;SDS011;2695;49.444;11.054;2022-12-07T01:23:56;6.03;;;4.97;;
5345;SDS011;2695;49.444;11.054;2022-12-07T01:26:25;7.47;;;5.77;;
5345;SDS011;2695;49.444;11.054;2022-12-07T01:28:53;6.73;;;5.80;;
5345;SDS011;2695;49.444;11.054;2022-12-07T01:31:23;7.83;;;6.57;;
5345;SDS011;2695;49.444;11.054;2022-12-07T01:33:53;7.80;;;5.80;;
5345;SDS011;2695;49.444;11.054;2022-12-07T01:36:25;8.10;;;5.83;;
5345;SDS011;2695;49.444;11.054;2022-12-07T01:38:55;6.53;;;5.83;;
5345;SDS011;2695;49.444;11.054;2022-12-07T01:41:24;9.07;;;6.50;;
5345;SDS011;2695;49.444;11.054;2022-12-07T01:44:11;12.83;;;6.70;;
5345;SDS011;2695;49.444;11.054;2022-12-07T01:46:45;7.60;;;6.47;;
5345;SDS011;2695;49.444;11.054;2022-12-07T01:49:27;7.77;;;5.63;;
5345;SDS011;2695;49.444;11.054;2022-12-07T01:52:00;8.23;;;5.60;;
5345;SDS011;2695;49.444;11.054;2022-12-07T01:54:34;8.30;;;6.00;;
5345;SDS011;2695;49.444;11.054;2022-12-07T01:57:03;8.30;;;6.57;;
5345;SDS011;2695;49.444;11.054;2022-12-07T01:59:35;8.57;;;6.30;;
5345;SDS011;2695;49.444;11.054;2022-12-07T02:02:04;8.80;;;6.17;;
5345;SDS011;2695;49.444;11.054;2022-12-07T02:04:37;10.57;;;6.70;;
5345;SDS011;2695;49.444;11.054;2022-12-07T02:07:05;6.23;;;5.63;;
5345;SDS011;2695;49.444;11.054;2022-12-07T02:09:34;9.87;;;6.57;;
5345;SDS011;2695;49.444;11.054;2022-12-07T02:12:02;6.57;;;5.77;;
5345;SDS011;2695;49.444;11.054;2022-12-07T02:14:31;8.57;;;7.07;;
5345;SDS011;2695;49.444;11.054;2022-12-07T02:17:02;9.90;;;6.63;;
5345;SDS011;2695;49.444;11.054;2022-12-07T02:19:55;9.20;;;6.37;;
5345;SDS011;2695;49.444;11.054;2022-12-07T02:22:42;8.10;;;5.90;;
5345;SDS011;2695;49.444;11.054;2022-12-07T02:25:23;9.90;;;7.17;;
5345;SDS011;2695;49.444;11.054;2022-12-07T02:28:05;7.60;;;6.10;;
5345;SDS011;2695;49.444;11.054;2022-12-07T02:30:42;11.43;;;7.20;;
5345;SDS011;2695;49.444;11.054;2022-12-07T02:33:14;12.17;;;6.97;;
5345;SDS011;2695;49.444;11.054;2022-12-07T02:35:48;11.63;;;6.40;;
5345;SDS011;2695;49.444;11.054;2022-12-07T02:38:24;9.00;;;6.83;;
5345;SDS011;2695;49.444;11.054;2022-12-07T02:40:57;13.70;;;7.60;;
5345;SDS011;2695;49.444;11.054;2022-12-07T02:43:34;10.70;;;7.80;;
5345;SDS011;2695;49.444;11.054;2022-12-07T02:46:08;10.80;;;7.20;;
5345;SDS011;2695;49.444;11.054;2022-12-07T02:48:40;9.37;;;7.10;;
5345;SDS011;2695;49.444;11.054;2022-12-07T02:51:09;9.93;;;6.90;;
5345;SDS011;2695;49.444;11.054;2022-12-07T02:53:39;9.20;;;7.23;;
5345;SDS011;2695;49.444;11.054;2022-12-07T02:56:10;9.73;;;7.50;;
5345;SDS011;2695;49.444;11.054;2022-12-07T02:58:46;10.43;;;7.67;;
5345;SDS011;2695;49.444;11.054;2022-12-07T03:01:27;9.00;;;6.47;;
5345;SDS011;2695;49.444;11.054;2022-12-07T03:04:25;9.77;;;7.10;;
5345;SDS011;2695;49.444;11.054;2022-12-07T03:07:05;9.60;;;6.73;;
5345;SDS011;2695;49.444;11.054;2022-12-07T03:09:40;11.40;;;7.27;;
5345;SDS011;2695;49.444;11.054;2022-12-07T03:12:16;9.57;;;7.33;;
5345;SDS011;2695;49.444;11.054;2022-12-07T03:14:49;12.40;;;7.97;;
5345;SDS011;2695;49.444;11.054;2022-12-07T03:17:35;9.73;;;7.47;;
5345;SDS011;2695;49.444;11.054;2022-12-07T03:20:10;16.33;;;8.73;;
5345;SDS011;2695;49.444;11.054;2022-12-07T03:22:40;11.50;;;7.73;;
5345;SDS011;2695;49.444;11.054;2022-12-07T03:25:11;13.90;;;7.90;;
5345;SDS011;2695;49.444;11.054;2022-12-07T03:27:44;10.90;;;7.80;;
5345;SDS011;2695;49.444;11.054;2022-12-07T03:30:19;10.17;;;7.73;;
5345;SDS011;2695;49.444;11.054;2022-12-07T03:32:52;13.63;;;8.90;;
5345;SDS011;2695;49.444;11.054;2022-12-07T03:35:25;14.13;;;9.63;;
5345;SDS011;2695;49.444;11.054;2022-12-07T03:37:57;12.10;;;8.30;;
5345;SDS011;2695;49.444;11.054;2022-12-07T03:40:30;11.73;;;8.40;;
5345;SDS011;2695;49.444;11.054;2022-12-07T03:43:02;13.00;;;8.10;;
5345;SDS011;2695;49.444;11.054;2022-12-07T03:45:32;14.90;;;8.57;;
5345;SDS011;2695;49.444;11.054;2022-12-07T03:48:08;16.47;;;8.40;;
5345;SDS011;2695;49.444;11.054;2022-12-07T03:50:48;12.27;;;8.70;;
5345;SDS011;2695;49.444;11.054;2022-12-07T03:53:22;14.53;;;9.17;;
5345;SDS011;2695;49.444;11.054;2022-12-07T03:55:58;10.40;;;8.07;;
5345;SDS011;2695;49.444;11.054;2022-12-07T03:58:27;13.83;;;8.87;;
5345;SDS011;2695;49.444;11.054;2022-12-07T04:00:57;11.03;;;8.00;;
5345;SDS011;2695;49.444;11.054;2022-12-07T04:03:26;14.93;;;9.13;;
5345;SDS011;2695;49.444;11.054;2022-12-07T04:05:54;12.80;;;9.77;;
5345;SDS011;2695;49.444;11.054;2022-12-07T04:08:24;14.63;;;9.00;;
5345;SDS011;2695;49.444;11.054;2022-12-07T04:10:52;14.47;;;9.00;;
5345;SDS011;2695;49.444;11.054;2022-12-07T04:13:20;13.23;;;9.70;;
5345;SDS011;2695;49.444;11.054;2022-12-07T04:15:48;16.53;;;10.23;;
5345;SDS011;2695;49.444;11.054;2022-12-07T04:18:17;15.23;;;8.50;;
5345;SDS011;2695;49.444;11.054;2022-12-07T04:20:46;13.37;;;8.43;;
5345;SDS011;2695;49.444;11.054;2022-12-07T04:23:15;14.80;;;9.13;;
5345;SDS011;2695;49.444;11.054;2022-12-07T04:25:43;13.77;;;9.07;;
5345;SDS011;2695;49.444;11.054;2022-12-07T04:28:11;14.90;;;9.33;;
5345;SDS011;2695;49.444;11.054;2022-12-07T04:30:39;25.57;;;11.50;;
5345;SDS011;2695;49.444;11.054;2022-12-07T04:33:07;15.00;;;9.20;;
5345;SDS011;2695;49.444;11.054;2022-12-07T04:35:35;16.67;;;9.60;;
5345;SDS011;2695;49.444;11.054;2022-12-07T04:38:05;18.03;;;11.37;;
5345;SDS011;2695;49.444;11.054;2022-12-07T04:40:33;16.30;;;10.17;;
5345;SDS011;2695;49.444;11.054;2022-12-07T04:43:01;14.53;;;9.30;;
5345;SDS011;2695;49.444;11.054;2022-12-07T04:45:30;14.27;;;9.80;;
5345;SDS011;2695;49.444;11.054;2022-12-07T04:47:59;13.40;;;9.70;;
5345;SDS011;2695;49.444;11.054;2022-12-07T04:50:27;14.83;;;9.37;;
5345;SDS011;2695;49.444;11.054;2022-12-07T04:56:03;13.80;;;9.00;;
5345;SDS011;2695;49.444;11.054;2022-12-07T04:58:31;13.00;;;9.23;;
5345;SDS011;2695;49.444;11.054;2022-12-07T05:01:00;14.10;;;9.90;;
5345;SDS011;2695;49.444;11.054;2022-12-07T05:03:32;13.33;;;8.40;;
5345;SDS011;2695;49.444;11.054;2022-12-07T05:06:00;13.10;;;10.10;;
5345;SDS011;2695;49.444;11.054;2022-12-07T05:08:32;17.17;;;9.97;;
5345;SDS011;2695;49.444;11.054;2022-12-07T05:11:02;31.87;;;10.00;;
5345;SDS011;2695;49.444;11.054;2022-12-07T05:13:31;12.60;;;8.73;;
5345;SDS011;2695;49.444;11.054;2022-12-07T05:16:00;15.00;;;10.87;;
5345;SDS011;2695;49.444;11.054;2022-12-07T05:18:28;12.93;;;9.33;;
5345;SDS011;2695;49.444;11.054;2022-12-07T05:20:56;18.03;;;10.00;;
5345;SDS011;2695;49.444;11.054;2022-12-07T05:23:24;17.33;;;10.70;;
5345;SDS011;2695;49.444;11.054;2022-12-07T05:25:52;19.57;;;10.73;;
5345;SDS011;2695;49.444;11.054;2022-12-07T05:28:25;15.43;;;9.70;;
5345;SDS011;2695;49.444;11.054;2022-12-07T05:30:54;17.10;;;10.90;;
5345;SDS011;2695;49.444;11.054;2022-12-07T05:33:25;17.20;;;10.50;;
5345;SDS011;2695;49.444;11.054;2022-12-07T05:35:53;12.90;;;8.67;;
5345;SDS011;2695;49.444;11.054;2022-12-07T05:38:21;20.07;;;11.17;;
5345;SDS011;2695;49.444;11.054;2022-12-07T05:40:49;20.10;;;11.00;;
5345;SDS011;2695;49.444;11.054;2022-12-07T05:43:17;18.90;;;11.23;;
5345;SDS011;2695;49.444;11.054;2022-12-07T05:45:47;18.03;;;11.67;;
5345;SDS011;2695;49.444;11.054;2022-12-07T05:48:18;20.43;;;11.47;;
5345;SDS011;2695;49.444;11.054;2022-12-07T05:50:47;19.20;;;11.60;;
5345;SDS011;2695;49.444;11.054;2022-12-07T05:53:24;16.97;;;9.83;;
5345;SDS011;2695;49.444;11.054;2022-12-07T05:55:53;16.43;;;10.60;;
5345;SDS011;2695;49.444;11.054;2022-12-07T05:58:21;14.80;;;9.50;;
5345;SDS011;2695;49.444;11.054;2022-12-07T06:01:08;18.27;;;10.80;;
5345;SDS011;2695;49.444;11.054;2022-12-07T06:03:36;19.10;;;11.17;;
5345;SDS011;2695;49.444;11.054;2022-12-07T06:06:13;16.50;;;11.57;;
5345;SDS011;2695;49.444;11.054;2022-12-07T06:08:42;22.30;;;11.13;;
5345;SDS011;2695;49.444;11.054;2022-12-07T06:11:10;20.30;;;11.77;;
5345;SDS011;2695;49.444;11.054;2022-12-07T06:13:59;24.80;;;13.20;;
5345;SDS011;2695;49.444;11.054;2022-12-07T06:16:28;19.90;;;12.10;;
5345;SDS011;2695;49.444;11.054;2022-12-07T06:18:57;17.20;;;11.53;;
5345;SDS011;2695;49.444;11.054;2022-12-07T06:21:25;17.83;;;10.90;;
5345;SDS011;2695;49.444;11.054;2022-12-07T06:23:53;21.37;;;12.37;;
5345;SDS011;2695;49.444;11.054;2022-12-07T06:26:22;18.00;;;10.87;;
5345;SDS011;2695;49.444;11.054;2022-12-07T06:28:50;20.83;;;12.40;;
5345;SDS011;2695;49.444;11.054;2022-12-07T06:31:18;20.50;;;11.40;;
5345;SDS011;2695;49.444;11.054;2022-12-07T06:33:48;18.73;;;12.10;;
5345;SDS011;2695;49.444;11.054;2022-12-07T06:36:16;18.13;;;12.20;;
5345;SDS011;2695;49.444;11.054;2022-12-07T06:38:52;21.37;;;12.00;;
5345;SDS011;2695;49.444;11.054;2022-12-07T06:41:41;21.87;;;13.57;;
5345;SDS011;2695;49.444;11.054;2022-12-07T06:44:10;22.70;;;12.50;;
5345;SDS011;2695;49.444;11.054;2022-12-07T06:46:38;21.33;;;13.53;;
5345;SDS011;2695;49.444;11.054;2022-12-07T06:49:08;20.57;;;12.43;;
5345;SDS011;2695;49.444;11.054;2022-12-07T06:51:36;19.37;;;11.80;;
5345;SDS011;2695;49.444;11.054;2022-12-07T06:54:07;22.10;;;13.10;;
5345;SDS011;2695;49.444;11.054;2022-12-07T06:56:36;19.47;;;11.40;;
5345;SDS011;2695;49.444;11.054;2022-12-07T06:59:05;21.47;;;12.07;;
5345;SDS011;2695;49.444;11.054;2022-12-07T07:01:36;18.50;;;11.93;;
5345;SDS011;2695;49.444;11.054;2022-12-07T07:04:05;19.20;;;12.30;;
5345;SDS011;2695;49.444;11.054;2022-12-07T07:06:34;20.73;;;12.40;;
5345;SDS011;2695;49.444;11.054;2022-12-07T07:09:05;21.87;;;12.77;;
5345;SDS011;2695;49.444;11.054;2022-12-07T07:11:42;19.27;;;11.77;;
5345;SDS011;2695;49.444;11.054;2022-12-07T07:14:10;20.50;;;12.00;;
5345;SDS011;2695;49.444;11.054;2022-12-07T07:20:04;37.63;;;13.80;;
5345;SDS011;2695;49.444;11.054;2022-12-07T07:22:56;17.53;;;10.83;;
5345;SDS011;2695;49.444;11.054;2022-12-07T07:25:26;19.03;;;10.73;;
5345;SDS011;2695;49.444;11.054;2022-12-07T07:27:56;18.40;;;12.43;;
5345;SDS011;2695;49.444;11.054;2022-12-07T07:30:27;21.13;;;11.97;;
5345;SDS011;2695;49.444;11.054;2022-12-07T07:32:58;19.73;;;12.53;;
5345;SDS011;2695;49.444;11.054;2022-12-07T07:35:27;20.20;;;12.40;;
5345;SDS011;2695;49.444;11.054;2022-12-07T07:37:57;17.83;;;11.97;;
5345;SDS011;2695;49.444;11.054;2022-12-07T07:40:25;20.87;;;13.10;;
5345;SDS011;2695;49.444;11.054;2022-12-07T07:42:55;18.20;;;12.40;;
5345;SDS011;2695;49.444;11.054;2022-12-07T07:45:24;19.60;;;12.37;;
5345;SDS011;2695;49.444;11.054;2022-12-07T07:47:53;25.13;;;12.80;;
5345;SDS011;2695;49.444;11.054;2022-12-07T07:50:22;27.47;;;12.60;;
5345;SDS011;2695;49.444;11.054;2022-12-07T07:52:50;23.93;;;13.23;;
5345;SDS011;2695;49.444;11.054;2022-12-07T07:55:20;21.60;;;13.00;;
5345;SDS011;2695;49.444;11.054;2022-12-07T07:57:53;28.47;;;13.63;;
5345;SDS011;2695;49.444;11.054;2022-12-07T08:00:22;19.33;;;12.47;;
5345;SDS011;2695;49.444;11.054;2022-12-07T08:02:51;25.63;;;13.90;;
5345;SDS011;2695;49.444;11.054;2022-12-07T08:05:21;22.70;;;14.50;;
5345;SDS011;2695;49.444;11.054;2022-12-07T08:07:50;20.30;;;12.37;;
5345;SDS011;2695;49.444;11.054;2022-12-07T08:10:23;21.53;;;12.27;;
5345;SDS011;2695;49.444;11.054;2022-12-07T08:12:55;22.33;;;13.90;;
5345;SDS011;2695;49.444;11.054;2022-12-07T08:15:38;20.87;;;12.23;;
5345;SDS011;2695;49.444;11.054;2022-12-07T08:18:08;18.57;;;11.90;;
5345;SDS011;2695;49.444;11.054;2022-12-07T08:20:36;22.90;;;12.10;;
5345;SDS011;2695;49.444;11.054;2022-12-07T08:23:05;22.10;;;13.40;;
5345;SDS011;2695;49.444;11.054;2022-12-07T08:25:36;23.60;;;13.10;;
5345;SDS011;2695;49.444;11.054;2022-12-07T08:28:04;21.97;;;12.93;;
5345;SDS011;2695;49.444;11.054;2022-12-07T08:30:32;22.13;;;13.13;;
5345;SDS011;2695;49.444;11.054;2022-12-07T08:33:01;22.73;;;13.47;;
5345;SDS011;2695;49.444;11.054;2022-12-07T08:35:29;22.40;;;12.90;;
5345;SDS011;2695;49.444;11.054;2022-12-07T08:38:02;18.93;;;12.00;;
5345;SDS011;2695;49.444;11.054;2022-12-07T08:40:30;23.60;;;12.90;;
5345;SDS011;2695;49.444;11.054;2022-12-07T08:43:00;19.70;;;13.20;;
5345;SDS011;2695;49.444;11.054;2022-12-07T08:45:28;19.43;;;11.73;;
5345;SDS011;2695;49.444;11.054;2022-12-07T08:47:59;19.83;;;11.47;;
5345;SDS011;2695;49.444;11.054;2022-12-07T08:50:31;18.40;;;11.70;;
5345;SDS011;2695;49.444;11.054;2022-12-07T08:52:59;23.43;;;13.23;;
5345;SDS011;2695;49.444;11.054;2022-12-07T08:55:28;17.27;;;10.70;;
5345;SDS011;2695;49.444;11.054;2022-12-07T08:57:57;19.50;;;10.87;;
5345;SDS011;2695;49.444;11.054;2022-12-07T09:00:27;16.17;;;10.77;;
5345;SDS011;2695;49.444;11.054;2022-12-07T09:02:55;20.07;;;11.10;;
5345;SDS011;2695;49.444;11.054;2022-12-07T09:05:23;17.97;;;11.03;;
5345;SDS011;2695;49.444;11.054;2022-12-07T09:07:53;18.17;;;10.23;;
5345;SDS011;2695;49.444;11.054;2022-12-07T09:10:24;16.10;;;10.20;;
5345;SDS011;2695;49.444;11.054;2022-12-07T09:12:53;13.73;;;8.97;;
5345;SDS011;2695;49.444;11.054;2022-12-07T09:15:28;16.23;;;9.60;;
5345;SDS011;2695;49.444;11.054;2022-12-07T09:17:57;15.57;;;9.27;;
5345;SDS011;2695;49.444;11.054;2022-12-07T09:20:25;16.43;;;9.80;;
5345;SDS011;2695;49.444;11.054;2022-12-07T09:22:53;13.20;;;8.77;;
5345;SDS011;2695;49.444;11.054;2022-12-07T09:25:22;15.90;;;9.23;;
5345;SDS011;2695;49.444;11.054;2022-12-07T09:27:54;17.03;;;10.20;;
5345;SDS011;2695;49.444;11.054;2022-12-07T09:30:23;14.43;;;9.37;;
5345;SDS011;2695;49.444;11.054;2022-12-07T09:32:53;15.00;;;8.53;;
5345;SDS011;2695;49.444;11.054;2022-12-07T09:35:22;13.80;;;8.20;;
5345;SDS011;2695;49.444;11.054;2022-12-07T09:37:51;14.20;;;8.20;;
5345;SDS011;2695;49.444;11.054;2022-12-07T09:40:19;14.23;;;9.10;;
5345;SDS011;2695;49.444;11.054;2022-12-07T09:42:49;13.90;;;8.90;;
5345;SDS011;2695;49.444;11.054;2022-12-07T09:45:21;10.93;;;8.00;;
5345;SDS011;2695;49.444;11.054;2022-12-07T09:47:51;12.30;;;7.40;;
5345;SDS011;2695;49.444;11.054;2022-12-07T09:50:21;14.07;;;8.50;;
5345;SDS011;2695;49.444;11.054;2022-12-07T09:52:52;12.60;;;8.33;;
5345;SDS011;2695;49.444;11.054;2022-12-07T09:55:23;11.47;;;8.20;;
5345;SDS011;2695;49.444;11.054;2022-12-07T09:57:53;12.77;;;8.27;;
5345;SDS011;2695;49.444;11.054;2022-12-07T10:00:22;15.07;;;8.40;;
5345;SDS011;2695;49.444;11.054;2022-12-07T10:02:53;15.37;;;8.90;;
5345;SDS011;2695;49.444;11.054;2022-12-07T10:05:25;18.30;;;10.27;;
5345;SDS011;2695;49.444;11.054;2022-12-07T10:07:57;14.70;;;8.60;;
5345;SDS011;2695;49.444;11.054;2022-12-07T10:10:26;13.50;;;8.87;;
5345;SDS011;2695;49.444;11.054;2022-12-07T10:13:04;14.43;;;8.47;;
5345;SDS011;2695;49.444;11.054;2022-12-07T10:15:44;12.20;;;8.13;;
5345;SDS011;2695;49.444;11.054;2022-12-07T10:18:20;11.87;;;8.20;;
5345;SDS011;2695;49.444;11.054;2022-12-07T10:21:02;13.17;;;8.10;;
5345;SDS011;2695;49.444;11.054;2022-12-07T10:23:38;14.27;;;9.40;;
5345;SDS011;2695;49.444;11.054;2022-12-07T10:26:21;17.20;;;9.80;;
5345;SDS011;2695;49.444;11.054;2022-12-07T10:28:57;13.17;;;8.40;;
5345;SDS011;2695;49.444;11.054;2022-12-07T10:31:27;11.67;;;8.47;;
5345;SDS011;2695;49.444;11.054;2022-12-07T10:33:57;11.83;;;8.17;;
5345;SDS011;2695;49.444;11.054;2022-12-07T10:36:30;12.50;;;8.67;;
5345;SDS011;2695;49.444;11.054;2022-12-07T10:39:03;16.57;;;9.60;;
5345;SDS011;2695;49.444;11.054;2022-12-07T10:41:45;12.50;;;8.03;;
5345;SDS011;2695;49.444;11.054;2022-12-07T10:44:21;17.50;;;9.27;;
5345;SDS011;2695;49.444;11.054;2022-12-07T10:52:53;13.63;;;8.57;;
5345;SDS011;2695;49.444;11.054;2022-12-07T10:55:50;14.27;;;8.80;;
5345;SDS011;2695;49.444;11.054;2022-12-07T10:58:32;10.20;;;7.73;;
5345;SDS011;2695;49.444;11.054;2022-12-07T11:01:13;11.93;;;7.97;;
5345;SDS011;2695;49.444;11.054;2022-12-07T11:03:52;10.27;;;7.80;;
5345;SDS011;2695;49.444;11.054;2022-12-07T11:06:32;11.77;;;7.70;;
5345;SDS011;2695;49.444;11.054;2022-12-07T11:09:14;12.57;;;8.40;;
5345;SDS011;2695;49.444;11.054;2022-12-07T11:12:28;14.57;;;9.23;;
5345;SDS011;2695;49.444;11.054;2022-12-07T11:15:09;13.17;;;9.03;;
5345;SDS011;2695;49.444;11.054;2022-12-07T11:17:48;16.57;;;9.47;;
5345;SDS011;2695;49.444;11.054;2022-12-07T11:20:27;13.33;;;8.93;;
5345;SDS011;2695;49.444;11.054;2022-12-07T11:23:04;12.80;;;9.17;;
5345;SDS011;2695;49.444;11.054;2022-12-07T11:26:17;11.50;;;8.17;;
5345;SDS011;2695;49.444;11.054;2022-12-07T11:29:14;16.50;;;9.33;;
5345;SDS011;2695;49.444;11.054;2022-12-07T11:32:05;14.10;;;8.53;;
5345;SDS011;2695;49.444;11.054;2022-12-07T11:34:43;12.37;;;8.07;;
5345;SDS011;2695;49.444;11.054;2022-12-07T11:37:19;13.23;;;9.03;;
5345;SDS011;2695;49.444;11.054;2022-12-07T11:39:51;11.43;;;8.20;;
5345;SDS011;2695;49.444;11.054;2022-12-07T11:42:24;12.20;;;8.53;;
5345;SDS011;2695;49.444;11.054;2022-12-07T11:44:55;13.80;;;9.37;;
5345;SDS011;2695;49.444;11.054;2022-12-07T11:47:30;14.43;;;8.77;;
5345;SDS011;2695;49.444;11.054;2022-12-07T11:50:22;12.50;;;8.50;;
5345;SDS011;2695;49.444;11.054;2022-12-07T11:52:57;18.53;;;9.40;;
5345;SDS011;2695;49.444;11.054;2022-12-07T11:55:38;13.40;;;9.07;;
5345;SDS011;2695;49.444;11.054;2022-12-07T11:58:20;12.83;;;8.20;;
5345;SDS011;2695;49.444;11.054;2022-12-07T12:01:16;19.27;;;9.00;;
5345;SDS011;2695;49.444;11.054;2022-12-07T12:04:05;10.13;;;7.50;;
5345;SDS011;2695;49.444;11.054;2022-12-07T12:06:44;14.47;;;8.73;;
5345;SDS011;2695;49.444;11.054;2022-12-07T12:09:14;13.17;;;8.80;;
5345;SDS011;2695;49.444;11.054;2022-12-07T12:12:26;11.50;;;8.43;;
5345;SDS011;2695;49.444;11.054;2022-12-07T12:15:35;11.40;;;8.47;;
5345;SDS011;2695;49.444;11.054;2022-12-07T12:18:28;11.37;;;8.30;;
5345;SDS011;2695;49.444;11.054;2022-12-07T12:21:19;15.00;;;7.70;;
5345;SDS011;2695;49.444;11.054;2022-12-07T12:23:57;13.00;;;8.83;;
5345;SDS011;2695;49.444;11.054;2022-12-07T12:26:33;12.73;;;8.43;;
5345;SDS011;2695;49.444;11.054;2022-12-07T12:29:18;13.27;;;8.40;;
5345;SDS011;2695;49.444;11.054;2022-12-07T12:32:11;14.40;;;8.33;;
5345;SDS011;2695;49.444;11.054;2022-12-07T12:35:02;17.03;;;9.90;;
5345;SDS011;2695;49.444;11.054;2022-12-07T12:37:46;11.20;;;8.37;;
5345;SDS011;2695;49.444;11.054;2022-12-07T12:58:42;14.30;;;9.17;;
5345;SDS011;2695;49.444;11.054;2022-12-07T13:01:37;11.67;;;7.10;;
5345;SDS011;2695;49.444;11.054;2022-12-07T13:10:37;13.60;;;7.57;;
5345;SDS011;2695;49.444;11.054;2022-12-07T13:16:37;12.67;;;8.43;;
5345;SDS011;2695;49.444;11.054;2022-12-07T13:22:34;15.70;;;8.77;;
5345;SDS011;2695;49.444;11.054;2022-12-07T13:25:11;15.60;;;9.27;;
5345;SDS011;2695;49.444;11.054;2022-12-07T13:27:50;12.80;;;8.00;;
5345;SDS011;2695;49.444;11.054;2022-12-07T13:30:24;12.53;;;8.30;;
5345;SDS011;2695;49.444;11.054;2022-12-07T13:32:56;12.80;;;8.80;;
5345;SDS011;2695;49.444;11.054;2022-12-07T13:35:35;13.73;;;9.20;;
5345;SDS011;2695;49.444;11.054;2022-12-07T13:38:17;18.23;;;8.97;;
5345;SDS011;2695;49.444;11.054;2022-12-07T13:41:01;17.40;;;8.67;;
5345;SDS011;2695;49.444;11.054;2022-12-07T13:43:43;17.60;;;9.27;;
5345;SDS011;2695;49.444;11.054;2022-12-07T13:46:19;16.13;;;9.70;;
5345;SDS011;2695;49.444;11.054;2022-12-07T13:48:57;11.90;;;8.40;;
5345;SDS011;2695;49.444;11.054;2022-12-07T13:51:34;16.00;;;9.07;;
5345;SDS011;2695;49.444;11.054;2022-12-07T13:54:09;11.50;;;8.47;;
5345;SDS011;2695;49.444;11.054;2022-12-07T13:56:47;17.00;;;10.30;;
5345;SDS011;2695;49.444;11.054;2022-12-07T13:59:53;12.73;;;8.70;;
5345;SDS011;2695;49.444;11.054;2022-12-07T14:02:23;13.07;;;9.00;;
5345;SDS011;2695;49.444;11.054;2022-12-07T14:05:12;16.57;;;9.90;;
5345;SDS011;2695;49.444;11.054;2022-12-07T14:07:53;17.37;;;9.20;;
5345;SDS011;2695;49.444;11.054;2022-12-07T14:10:26;15.60;;;9.57;;
5345;SDS011;2695;49.444;11.054;2022-12-07T14:12:56;17.83;;;10.73;;
5345;SDS011;2695;49.444;11.054;2022-12-07T14:15:29;14.40;;;9.93;;
5345;SDS011;2695;49.444;11.054;2022-12-07T14:17:59;13.70;;;9.10;;
5345;SDS011;2695;49.444;11.054;2022-12-07T14:20:40;12.60;;;8.93;;
5345;SDS011;2695;49.444;11.054;2022-12-07T14:23:23;19.00;;;9.90;;
5345;SDS011;2695;49.444;11.054;2022-12-07T14:26:04;14.30;;;9.20;;
5345;SDS011;2695;49.444;11.054;2022-12-07T14:28:37;15.40;;;10.07;;
5345;SDS011;2695;49.444;11.054;2022-12-07T14:31:17;14.70;;;9.83;;
5345;SDS011;2695;49.444;11.054;2022-12-07T14:34:04;11.63;;;8.60;;
5345;SDS011;2695;49.444;11.054;2022-12-07T14:36:38;16.60;;;9.83;;
5345;SDS011;2695;49.444;11.054;2022-12-07T14:39:07;13.83;;;9.37;;
5345;SDS011;2695;49.444;11.054;2022-12-07T14:41:39;16.30;;;10.23;;
5345;SDS011;2695;49.444;11.054;2022-12-07T14:44:21;17.00;;;10.23;;
5345;SDS011;2695;49.444;11.054;2022-12-07T14:47:00;16.40;;;9.73;;
5345;SDS011;2695;49.444;11.054;2022-12-07T14:49:58;20.83;;;11.00;;
5345;SDS011;2695;49.444;11.054;2022-12-07T14:52:32;18.17;;;10.57;;
5345;SDS011;2695;49.444;11.054;2022-12-07T14:55:23;14.20;;;9.70;;
5345;SDS011;2695;49.444;11.054;2022-12-07T14:57:52;14.10;;;9.40;;
5345;SDS011;2695;49.444;11.054;2022-12-07T15:01:05;13.73;;;9.40;;
5345;SDS011;2695;49.444;11.054;2022-12-07T15:03:35;12.23;;;7.00;;
5345;SDS011;2695;49.444;11.054;2022-12-07T15:06:14;11.80;;;7.00;;
5345;SDS011;2695;49.444;11.054;2022-12-07T15:09:15;13.40;;;8.33;;
5345;SDS011;2695;49.444;11.054;2022-12-07T15:11:57;11.80;;;7.57;;
5345;SDS011;2695;49.444;11.054;2022-12-07T15:14:54;13.83;;;7.90;;
5345;SDS011;2695;49.444;11.054;2022-12-07T15:17:26;14.83;;;8.43;;
5345;SDS011;2695;49.444;11.054;2022-12-07T15:20:07;14.00;;;8.33;;
5345;SDS011;2695;49.444;11.054;2022-12-07T15:22:46;15.83;;;9.43;;
5345;SDS011;2695;49.444;11.054;2022-12-07T15:25:22;13.60;;;8.67;;
5345;SDS011;2695;49.444;11.054;2022-12-07T15:27:54;16.83;;;10.10;;
5345;SDS011;2695;49.444;11.054;2022-12-07T15:30:22;15.80;;;9.40;;
5345;SDS011;2695;49.444;11.054;2022-12-07T15:33:06;13.80;;;8.73;;
5345;SDS011;2695;49.444;11.054;2022-12-07T15:36:01;19.53;;;8.50;;
5345;SDS011;2695;49.444;11.054;2022-12-07T15:38:35;18.83;;;8.70;;
5345;SDS011;2695;49.444;11.054;2022-12-07T15:41:32;14.63;;;8.83;;
5345;SDS011;2695;49.444;11.054;2022-12-07T15:44:02;12.23;;;8.00;;
5345;SDS011;2695;49.444;11.054;2022-12-07T15:46:59;11.40;;;8.33;;
5345;SDS011;2695;49.444;11.054;2022-12-07T15:49:27;10.60;;;7.80;;
5345;SDS011;2695;49.444;11.054;2022-12-07T15:51:59;13.03;;;8.30;;
5345;SDS011;2695;49.444;11.054;2022-12-07T15:54:35;15.63;;;9.57;;
5345;SDS011;2695;49.444;11.054;2022-12-07T15:57:03;14.90;;;8.90;;
5345;SDS011;2695;49.444;11.054;2022-12-07T15:59:32;17.77;;;8.73;;
5345;SDS011;2695;49.444;11.054;2022-12-07T16:02:00;14.73;;;8.70;;
5345;SDS011;2695;49.444;11.054;2022-12-07T16:04:28;12.43;;;8.30;;
5345;SDS011;2695;49.444;11.054;2022-12-07T16:06:57;14.33;;;8.40;;
5345;SDS011;2695;49.444;11.054;2022-12-07T16:09:26;18.63;;;8.50;;
5345;SDS011;2695;49.444;11.054;2022-12-07T16:11:55;14.53;;;9.43;;